Flight Track Log - Related Links

Times and Time Zones

All times are in EDT time to prevent confusion due to time zone crossing. See the N911CX flight status page for this flight to view local times or setup timezone preferences in your user account.

Time Position Orientation Groundspeed Altitude Reporting Facility
EDT Latitude Longitude Course Direction KTS MPH feet Rate Location/Type
Mon 10:09:26 PM 32.6661 -114.5753 68° East 145 167 600  Level Los Angeles Center
Mon 10:09:32 PM 32.6689 -114.5669 68° East 156 180 800 1,254 Climbing Los Angeles Center
Mon 10:10:33 PM 32.6878 -114.5214 64° Northeast 163 188 2,000 1,340 Climbing Los Angeles Center
Mon 10:11:15 PM 32.6964 -114.4864 74° East 159 183 3,100 1,500 Climbing Los Angeles Center
Mon 10:11:33 PM 32.7019 -114.4719 65° Northeast 162 186 3,500 885 Climbing Los Angeles Center
Mon 10:12:16 PM 32.7136 -114.4356 69° East 162 186 4,000 885 Climbing Los Angeles Center
Mon 10:12:34 PM 32.7225 -114.4131 65° Northeast 184 212 4,400 973 Climbing Los Angeles Center
Mon 10:13:30 PM 32.7342 -114.3806 67° East 171 197 5,200 1,200 Climbing Los Angeles Center
Mon 10:13:34 PM 32.7447 -114.3617 56° Northeast 184 212 5,600 1,065 Climbing Los Angeles Center
Mon 10:14:32 PM 32.7633 -114.3158 64° Northeast 178 205 6,300 885 Climbing Los Angeles Center
Mon 10:14:35 PM 32.7683 -114.3069 56° Northeast 186 214 6,500 1,082 Climbing Los Angeles Center
Mon 10:15:33 PM 32.7792 -114.2567 76° East 184 212 7,400 1,082 Climbing Los Angeles Center
Mon 10:15:36 PM 32.7756 -114.2442 109° East 185 213 7,600 1,065 Climbing Los Angeles Center
Mon 10:16:35 PM 32.7722 -114.1969 95° East 183 211 8,500 1,100 Climbing Los Angeles Center
Mon 10:16:36 PM 32.7686 -114.1878 115° Southeast 177 204 8,700 1,475 Climbing Los Angeles Center
Mon 10:17:36 PM 32.7747 -114.1272 83° East 178 205 10,000 1,279 Climbing Los Angeles Center
Mon 10:17:37 PM 32.7722 -114.1283 200° South 179 206 10,000 774 Level Los Angeles Center
Mon 10:18:38 PM 32.7758 -114.0653 86° East 184 212 10,800 541 Climbing Los Angeles Center
Mon 10:19:39 PM 32.7753 -114.0008 91° East 193 222 11,100 98 Climbing Los Angeles Center
Mon 10:20:41 PM 32.7794 -113.9236 86° East 228 262 11,000  Descending Los Angeles Center
Mon 10:21:43 PM 32.8033 -113.8519 68° East 233 268 11,100 49 Climbing Los Angeles Center
Mon 10:22:44 PM 32.8411 -113.7867 55° Northeast 236 272 11,100  Level Los Angeles Center
Mon 10:23:46 PM 32.8786 -113.7208 56° Northeast 239 275 11,100 -49 Level Los Angeles Center
Mon 10:24:47 PM 32.9117 -113.6525 60° Northeast 239 275 11,000  Descending Los Angeles Center
Mon 10:25:35 PM 32.9375 -113.5969 61° Northeast 238 274 11,100 55 Climbing Albuquerque Center
Mon 10:26:36 PM 32.9697 -113.5281 61° Northeast 238 274 11,100  Level Albuquerque Center
Mon 10:27:37 PM 33.0078 -113.4456 61° Northeast 236 272 11,100 -49 Level Albuquerque Center
Mon 10:28:38 PM 33.0375 -113.3756 63° Northeast 236 272 11,000 -49 Descending Albuquerque Center
Mon 10:29:40 PM 33.0692 -113.3058 62° Northeast 237 273 11,000  Level Albuquerque Center
Mon 10:30:41 PM 33.0917 -113.2328 70° East 234 269 11,000  Level Albuquerque Center
Mon 10:31:42 PM 33.1161 -113.1592 68° East 236 272 11,000  Level Albuquerque Center
Mon 10:32:43 PM 33.1508 -113.0908 59° Northeast 238 274 11,000  Level Albuquerque Center
Mon 10:33:44 PM 33.1825 -113.0208 62° Northeast 239 275 11,000  Level Albuquerque Center
Mon 10:34:45 PM 33.2153 -112.9511 61° Northeast 240 276 11,000  Level Albuquerque Center
Mon 10:35:46 PM 33.2456 -112.8817 62° Northeast 237 273 11,000  Level Albuquerque Center
Mon 10:36:48 PM 33.2761 -112.8094 63° Northeast 238 274 11,000  Level Albuquerque Center
Mon 10:37:49 PM 33.2819 -112.7325 85° East 233 268 11,000  Level Albuquerque Center
Mon 10:38:50 PM 33.2867 -112.6561 86° East 231 266 11,000  Level Albuquerque Center
Mon 10:39:51 PM 33.2869 -112.5794 90° East 228 262 11,000  Level Albuquerque Center
Mon 10:40:52 PM 33.2878 -112.4878 89° East 229 264 11,000  Level Albuquerque Center
Mon 10:41:53 PM 33.2900 -112.4117 88° East 230 265 11,000  Level Albuquerque Center
Mon 10:42:54 PM 33.2911 -112.3367 89° East 227 261 11,000 -98 Level Albuquerque Center
Mon 10:43:55 PM 33.2931 -112.2611 88° East 229 264 10,800 -488 Descending Albuquerque Center
Mon 10:44:57 PM 33.2986 -112.1806 85° East 246 283 10,000 -829 Descending Albuquerque Center
Mon 10:45:58 PM 33.3256 -112.1053 67° East 247 284 9,100 -590 Descending Albuquerque Center
Mon 10:46:59 PM 33.3433 -112.0339 73° East 224 258 8,800 -787 Descending Albuquerque Center
Mon 10:48:00 PM 33.3414 -111.9592 92° East 227 261 7,500 -1,180 Descending Albuquerque Center
Mon 10:49:01 PM 33.3375 -111.8914 94° East 204 235 6,400 -1,279 Descending Albuquerque Center
Mon 10:50:02 PM 33.3339 -111.8286 94° East 192 221 4,900 -1,328 Descending Albuquerque Center
Mon 10:51:03 PM 33.3811 -111.7933 32° Northeast 188 216 3,700 -836 Descending Albuquerque Center
Mon 10:52:04 PM 33.4206 -111.8183 332° Northwest 181 208 3,200 -344 Descending Albuquerque Center
Mon 10:53:05 PM 33.4286 -111.8742 280° West 170 196 3,000 -247 Descending Albuquerque Center
Mon 10:53:41 PM 33.4333 -111.9000 282° West 157 181 2,800 -750 Descending Phoenix TRACON
Mon 10:54:41 PM 33.4333 -111.9500 270° West 142 163 1,800 -1,000 Descending Phoenix TRACON

Login

Don't have an account? Register now (free) for customized features, flight alerts, and more!